Weirsdale, Florida
Current Conditions -  °F | °C
As of 5:19 AM on Monday 22 Dec 2014 (Local Time) from KLEE Reporting Station
Overcast Overcast  
Wind Chill: 65°   Ceiling: 400
Heat Index: 65°   Visibility: 8mi
Dew Point: 64°   Wind: 5mph
Humidity: 97%   Direction: 110°ESE
Pressure: 30"   Gusts: NA
Location:  28.98°N, 81.92°W
Report Text: KLEE 221019Z AUTO 11004KT 8SM OVC004 18/18 A3000 RMK AO2 T01830178
Loading
Personal Weather Stations






























Interactive Weather Map New forecast layout! Learn more

10-Day Weather Forecast

Advertisements
Track Severe Weather on mobile